Meishomaru — JD3044 — position and weather

sailwx.info

Track history (hours):
 
Tides and Currents Weather Stations Pressure Air Temp Water Temp Dewpoint Dewpoint Depression Visibility Wind Speed Wind Dir Waves Ship Positions

Meishomaru

Last reported at 2014-Sep-22 07:32 UTC. Time now 2014-Sep-22 08:16 UTC.
Position N 34°32' E 135°21'.

Length 68 m; draft 4 m.

Type: Tanker. MMSI: 431001216.

Date/timePositionNaut miles runAvg speedWind from/ knotsBaromVisibWave heightAir tempDewpointWater temp
2014-Sep-22 07:32N 34°32' E 135°21'0 0.0
2014-Sep-22 06:32N 34°32' E 135°21'0 0.0
2014-Sep-22 05:32N 34°32' E 135°21'0 0.0
2014-Sep-22 04:32N 34°32' E 135°21'0 0.0
2014-Sep-22 03:32N 34°32' E 135°21'0 0.0
2014-Sep-22 02:20N 34°32' E 135°21'0 0.0
2014-Sep-22 01:32N 34°32' E 135°21'0 0.0
2014-Sep-21 23:32N 34°32' E 135°21'0 0.0
2014-Sep-21 22:32N 34°32' E 135°21'0 0.0
2014-Sep-21 21:26N 34°32' E 135°21'0 0.0
2014-Sep-21 20:32N 34°32' E 135°21'0 0.0
2014-Sep-21 19:26N 34°32' E 135°21'0 0.0
2014-Sep-21 17:08N 34°32' E 135°21'0 0.0
2014-Sep-21 16:20N 34°32' E 135°21'0 0.0
2014-Sep-21 15:20N 34°32' E 135°21'0 0.0
2014-Sep-21 14:32N 34°32' E 135°21'0 0.0
2014-Sep-21 13:08N 34°32' E 135°21'0 0.0
2014-Sep-21 12:32N 34°32' E 135°21'0 0.0
2014-Sep-21 11:32N 34°32' E 135°21'0 0.0
2014-Sep-21 10:32N 34°32' E 135°21'0 0.0
2014-Sep-21 09:32N 34°32' E 135°21'0 0.0
2014-Sep-21 08:26N 34°32' E 135°21'8 9.3
2014-Sep-21 07:33N 34°28' E 135°13'1312.4
2014-Sep-21 06:32N 34°19' E 135°02'1110.7
2014-Sep-21 05:33N 34°09' E 135°00'24310.1
2014-Sep-20 05:33N 35°12' E 139°45'1211.7
2014-Sep-20 04:34N 35°23' E 139°42'14 2.1
2014-Sep-19 22:09N 35°30' E 139°57'1 1.1
2014-Sep-19 21:08N 35°29' E 139°56'0 0.0
2014-Sep-19 20:20N 35°29' E 139°56'0 0.0
2014-Sep-19 15:29N 35°29' E 139°56'0 0.0
2014-Sep-19 14:29N 35°29' E 139°56'0 0.0
2014-Sep-19 13:26N 35°29' E 139°56'1 0.2
2014-Sep-19 05:33N 35°30' E 139°54'4 4.3
2014-Sep-19 04:33N 35°30' E 139°49'4 3.5
2014-Sep-19 03:29N 35°31' E 139°45'0 0.0
2014-Sep-19 02:17N 35°31' E 139°45'0 0.0
2014-Sep-19 01:29N 35°31' E 139°45'3 3.3
2014-Sep-19 00:33N 35°30' E 139°48'1 0.8
2014-Sep-18 23:33N 35°29' E 139°49'0 0.0
2014-Sep-18 22:33N 35°29' E 139°49'0 0.0
2014-Sep-18 21:33N 35°29' E 139°49'0 0.0
2014-Sep-18 20:30N 35°29' E 139°49'0 0.0
2014-Sep-18 19:30N 35°29' E 139°49'0 0.0
2014-Sep-18 18:30N 35°29' E 139°49'0 0.0
2014-Sep-18 17:33N 35°29' E 139°49'0 0.0
2014-Sep-18 16:33N 35°29' E 139°49'0 0.0
2014-Sep-18 15:33N 35°29' E 139°49'0 0.0
2014-Sep-18 14:33N 35°29' E 139°49'0 0.0
2014-Sep-18 13:33N 35°29' E 139°49'7 6.8
2014-Sep-18 12:34N 35°23' E 139°46'1010.4
2014-Sep-18 11:33N 35°12' E 139°47'1110.8
2014-Sep-18 10:33N 35°03' E 139°41'238 9.5
2014-Sep-17 09:33N 34°11' E 134°59'2211.0
2014-Sep-17 07:32N 34°29' E 135°14'9 9.2
2014-Sep-17 06:33N 34°32' E 135°25'0 0.0
2014-Sep-17 05:33N 34°32' E 135°25'0 0.0
2014-Sep-17 04:33N 34°32' E 135°25'0 0.0
2014-Sep-17 03:33N 34°32' E 135°25'0 0.0
2014-Sep-17 02:23N 34°32' E 135°25'0 0.0
2014-Sep-17 01:33N 34°32' E 135°25'0 0.1
2014-Sep-17 00:33N 34°31' E 135°25'4 3.8
2014-Sep-16 23:33N 34°32' E 135°20'0 0.1
2014-Sep-16 22:24N 34°32' E 135°20'0 0.0
2014-Sep-16 21:30N 34°32' E 135°20'0 0.0
2014-Sep-16 20:30N 34°32' E 135°20'0 0.0
2014-Sep-16 19:30N 34°32' E 135°20'0 0.0
2014-Sep-16 18:30N 34°32' E 135°20'0 0.0
2014-Sep-16 17:30N 34°32' E 135°20'0 0.0
2014-Sep-16 16:30N 34°32' E 135°20'0 0.0
2014-Sep-16 15:30N 34°32' E 135°20'0 0.0
2014-Sep-16 14:12N 34°32' E 135°20'0 0.0
2014-Sep-16 13:24N 34°32' E 135°20'0 0.0
2014-Sep-16 12:30N 34°32' E 135°20'0 0.0
2014-Sep-16 11:18N 34°32' E 135°20'0 0.0
2014-Sep-16 10:30N 34°32' E 135°20'0 0.0
2014-Sep-16 09:24N 34°32' E 135°20'7 8.7
2014-Sep-16 08:33N 34°34' E 135°11'  
Track history (hours):
 
Tides and Currents Weather Stations Pressure Air Temp Water Temp Dewpoint Dewpoint Depression Visibility Wind Speed Wind Dir Waves Ship Positions

Meishomaru

Last reported at 2014-Sep-22 07:32 UTC. Time now 2014-Sep-22 08:16 UTC.
Position N 34°32' E 135°21'.

Length 68 m; draft 4 m.

Type: Tanker. MMSI: 431001216.

Date/timePositionNaut miles runAvg speedWind from/ knotsBaromVisibWave heightAir tempDewpointWater temp
2014-Sep-22 07:32N 34°32' E 135°21'0 0.0
2014-Sep-22 06:32N 34°32' E 135°21'0 0.0
2014-Sep-22 05:32N 34°32' E 135°21'0 0.0
2014-Sep-22 04:32N 34°32' E 135°21'0 0.0
2014-Sep-22 03:32N 34°32' E 135°21'0 0.0
2014-Sep-22 02:20N 34°32' E 135°21'0 0.0
2014-Sep-22 01:32N 34°32' E 135°21'0 0.0
2014-Sep-21 23:32N 34°32' E 135°21'0 0.0
2014-Sep-21 22:32N 34°32' E 135°21'0 0.0
2014-Sep-21 21:26N 34°32' E 135°21'0 0.0
2014-Sep-21 20:32N 34°32' E 135°21'0 0.0
2014-Sep-21 19:26N 34°32' E 135°21'0 0.0
2014-Sep-21 17:08N 34°32' E 135°21'0 0.0
2014-Sep-21 16:20N 34°32' E 135°21'0 0.0
2014-Sep-21 15:20N 34°32' E 135°21'0 0.0
2014-Sep-21 14:32N 34°32' E 135°21'0 0.0
2014-Sep-21 13:08N 34°32' E 135°21'0 0.0
2014-Sep-21 12:32N 34°32' E 135°21'0 0.0
2014-Sep-21 11:32N 34°32' E 135°21'0 0.0
2014-Sep-21 10:32N 34°32' E 135°21'0 0.0
2014-Sep-21 09:32N 34°32' E 135°21'0 0.0
2014-Sep-21 08:26N 34°32' E 135°21'8 9.3
2014-Sep-21 07:33N 34°28' E 135°13'1312.4
2014-Sep-21 06:32N 34°19' E 135°02'1110.7
2014-Sep-21 05:33N 34°09' E 135°00'24310.1
2014-Sep-20 05:33N 35°12' E 139°45'1211.7
2014-Sep-20 04:34N 35°23' E 139°42'14 2.1
2014-Sep-19 22:09N 35°30' E 139°57'1 1.1
2014-Sep-19 21:08N 35°29' E 139°56'0 0.0
2014-Sep-19 20:20N 35°29' E 139°56'0 0.0
2014-Sep-19 15:29N 35°29' E 139°56'0 0.0
2014-Sep-19 14:29N 35°29' E 139°56'0 0.0
2014-Sep-19 13:26N 35°29' E 139°56'1 0.2
2014-Sep-19 05:33N 35°30' E 139°54'4 4.3
2014-Sep-19 04:33N 35°30' E 139°49'4 3.5
2014-Sep-19 03:29N 35°31' E 139°45'0 0.0
2014-Sep-19 02:17N 35°31' E 139°45'0 0.0
2014-Sep-19 01:29N 35°31' E 139°45'3 3.3
2014-Sep-19 00:33N 35°30' E 139°48'1 0.8
2014-Sep-18 23:33N 35°29' E 139°49'0 0.0
2014-Sep-18 22:33N 35°29' E 139°49'0 0.0
2014-Sep-18 21:33N 35°29' E 139°49'0 0.0
2014-Sep-18 20:30N 35°29' E 139°49'0 0.0
2014-Sep-18 19:30N 35°29' E 139°49'0 0.0
2014-Sep-18 18:30N 35°29' E 139°49'0 0.0
2014-Sep-18 17:33N 35°29' E 139°49'0 0.0
2014-Sep-18 16:33N 35°29' E 139°49'0 0.0
2014-Sep-18 15:33N 35°29' E 139°49'0 0.0
2014-Sep-18 14:33N 35°29' E 139°49'0 0.0
2014-Sep-18 13:33N 35°29' E 139°49'7 6.8
2014-Sep-18 12:34N 35°23' E 139°46'1010.4
2014-Sep-18 11:33N 35°12' E 139°47'1110.8
2014-Sep-18 10:33N 35°03' E 139°41'238 9.5
2014-Sep-17 09:33N 34°11' E 134°59'2211.0
2014-Sep-17 07:32N 34°29' E 135°14'9 9.2
2014-Sep-17 06:33N 34°32' E 135°25'0 0.0
2014-Sep-17 05:33N 34°32' E 135°25'0 0.0
2014-Sep-17 04:33N 34°32' E 135°25'0 0.0
2014-Sep-17 03:33N 34°32' E 135°25'0 0.0
2014-Sep-17 02:23N 34°32' E 135°25'0 0.0
2014-Sep-17 01:33N 34°32' E 135°25'0 0.1
2014-Sep-17 00:33N 34°31' E 135°25'4 3.8
2014-Sep-16 23:33N 34°32' E 135°20'0 0.1
2014-Sep-16 22:24N 34°32' E 135°20'0 0.0
2014-Sep-16 21:30N 34°32' E 135°20'0 0.0
2014-Sep-16 20:30N 34°32' E 135°20'0 0.0
2014-Sep-16 19:30N 34°32' E 135°20'0 0.0
2014-Sep-16 18:30N 34°32' E 135°20'0 0.0
2014-Sep-16 17:30N 34°32' E 135°20'0 0.0
2014-Sep-16 16:30N 34°32' E 135°20'0 0.0
2014-Sep-16 15:30N 34°32' E 135°20'0 0.0
2014-Sep-16 14:12N 34°32' E 135°20'0 0.0
2014-Sep-16 13:24N 34°32' E 135°20'0 0.0
2014-Sep-16 12:30N 34°32' E 135°20'0 0.0
2014-Sep-16 11:18N 34°32' E 135°20'0 0.0
2014-Sep-16 10:30N 34°32' E 135°20'0 0.0
2014-Sep-16 09:24N 34°32' E 135°20'7 8.7
2014-Sep-16 08:33N 34°34' E 135°11'  

Dump ship's entire track history